sensor_id;sensor_type;location;lat;lon;timestamp;P1;durP1;ratioP1;P2;durP2;ratioP2
2211;SDS011;48849;48.758;9.158;2023-03-01T00:00:53;18.60;;;15.40;;
2211;SDS011;48849;48.758;9.158;2023-03-01T00:03:20;19.75;;;14.15;;
2211;SDS011;48849;48.758;9.158;2023-03-01T00:05:47;17.30;;;14.93;;
2211;SDS011;48849;48.758;9.158;2023-03-01T00:08:15;19.95;;;15.70;;
2211;SDS011;48849;48.758;9.158;2023-03-01T00:10:41;19.15;;;14.88;;
2211;SDS011;48849;48.758;9.158;2023-03-01T00:13:08;18.98;;;14.85;;
2211;SDS011;48849;48.758;9.158;2023-03-01T00:15:37;19.17;;;14.45;;
2211;SDS011;48849;48.758;9.158;2023-03-01T00:18:05;23.10;;;15.20;;
2211;SDS011;48849;48.758;9.158;2023-03-01T00:20:31;20.23;;;15.10;;
2211;SDS011;48849;48.758;9.158;2023-03-01T00:22:58;17.42;;;14.13;;
2211;SDS011;48849;48.758;9.158;2023-03-01T00:25:26;19.90;;;15.57;;
2211;SDS011;48849;48.758;9.158;2023-03-01T00:27:53;20.17;;;14.52;;
2211;SDS011;48849;48.758;9.158;2023-03-01T00:30:19;19.05;;;14.23;;
2211;SDS011;48849;48.758;9.158;2023-03-01T00:32:46;18.10;;;15.13;;
2211;SDS011;48849;48.758;9.158;2023-03-01T00:35:13;15.20;;;13.48;;
2211;SDS011;48849;48.758;9.158;2023-03-01T00:37:39;21.83;;;14.35;;
2211;SDS011;48849;48.758;9.158;2023-03-01T00:40:07;18.58;;;14.80;;
2211;SDS011;48849;48.758;9.158;2023-03-01T00:42:36;16.27;;;13.60;;
2211;SDS011;48849;48.758;9.158;2023-03-01T00:45:03;24.95;;;15.38;;
2211;SDS011;48849;48.758;9.158;2023-03-01T00:47:32;19.98;;;14.00;;
2211;SDS011;48849;48.758;9.158;2023-03-01T00:49:59;18.20;;;13.63;;
2211;SDS011;48849;48.758;9.158;2023-03-01T00:52:26;18.63;;;13.90;;
2211;SDS011;48849;48.758;9.158;2023-03-01T00:54:53;17.50;;;14.27;;
2211;SDS011;48849;48.758;9.158;2023-03-01T00:57:19;17.30;;;13.50;;
2211;SDS011;48849;48.758;9.158;2023-03-01T00:59:48;27.85;;;14.88;;
2211;SDS011;48849;48.758;9.158;2023-03-01T01:02:14;19.15;;;13.73;;
2211;SDS011;48849;48.758;9.158;2023-03-01T01:04:41;21.20;;;15.25;;
2211;SDS011;48849;48.758;9.158;2023-03-01T01:07:08;22.02;;;14.40;;
2211;SDS011;48849;48.758;9.158;2023-03-01T01:09:34;17.67;;;14.18;;
2211;SDS011;48849;48.758;9.158;2023-03-01T01:12:01;19.73;;;15.02;;
2211;SDS011;48849;48.758;9.158;2023-03-01T01:14:29;21.00;;;14.10;;
2211;SDS011;48849;48.758;9.158;2023-03-01T01:16:57;17.05;;;13.57;;
2211;SDS011;48849;48.758;9.158;2023-03-01T01:19:24;19.73;;;14.98;;
2211;SDS011;48849;48.758;9.158;2023-03-01T01:21:52;18.65;;;14.45;;
2211;SDS011;48849;48.758;9.158;2023-03-01T01:24:18;18.90;;;14.85;;
2211;SDS011;48849;48.758;9.158;2023-03-01T01:26:45;21.52;;;13.88;;
2211;SDS011;48849;48.758;9.158;2023-03-01T01:29:12;19.55;;;13.75;;
2211;SDS011;48849;48.758;9.158;2023-03-01T01:31:40;20.02;;;14.98;;
2211;SDS011;48849;48.758;9.158;2023-03-01T01:34:15;17.40;;;14.23;;
2211;SDS011;48849;48.758;9.158;2023-03-01T01:36:47;18.35;;;14.57;;
2211;SDS011;48849;48.758;9.158;2023-03-01T01:39:15;22.25;;;15.07;;
2211;SDS011;48849;48.758;9.158;2023-03-01T01:41:42;19.50;;;14.15;;
2211;SDS011;48849;48.758;9.158;2023-03-01T01:44:10;19.77;;;14.75;;
2211;SDS011;48849;48.758;9.158;2023-03-01T01:46:39;19.70;;;12.98;;
2211;SDS011;48849;48.758;9.158;2023-03-01T01:49:11;19.00;;;14.77;;
2211;SDS011;48849;48.758;9.158;2023-03-01T01:51:49;22.17;;;15.23;;
2211;SDS011;48849;48.758;9.158;2023-03-01T01:54:21;17.73;;;14.63;;
2211;SDS011;48849;48.758;9.158;2023-03-01T01:56:52;19.08;;;15.05;;
2211;SDS011;48849;48.758;9.158;2023-03-01T01:59:21;17.73;;;13.77;;
2211;SDS011;48849;48.758;9.158;2023-03-01T02:01:50;17.90;;;15.05;;
2211;SDS011;48849;48.758;9.158;2023-03-01T02:04:19;19.00;;;14.25;;
2211;SDS011;48849;48.758;9.158;2023-03-01T02:06:47;20.40;;;15.18;;
2211;SDS011;48849;48.758;9.158;2023-03-01T02:09:17;21.17;;;14.43;;
2211;SDS011;48849;48.758;9.158;2023-03-01T02:11:46;20.02;;;14.80;;
2211;SDS011;48849;48.758;9.158;2023-03-01T02:14:14;18.60;;;13.70;;
2211;SDS011;48849;48.758;9.158;2023-03-01T02:16:41;19.17;;;13.82;;
2211;SDS011;48849;48.758;9.158;2023-03-01T02:19:09;19.05;;;13.73;;
2211;SDS011;48849;48.758;9.158;2023-03-01T02:21:44;15.80;;;13.52;;
2211;SDS011;48849;48.758;9.158;2023-03-01T02:24:24;19.15;;;15.05;;
2211;SDS011;48849;48.758;9.158;2023-03-01T02:26:56;19.67;;;14.57;;
2211;SDS011;48849;48.758;9.158;2023-03-01T02:29:25;17.27;;;13.43;;
2211;SDS011;48849;48.758;9.158;2023-03-01T02:31:54;17.50;;;14.35;;
2211;SDS011;48849;48.758;9.158;2023-03-01T02:34:24;19.70;;;14.10;;
2211;SDS011;48849;48.758;9.158;2023-03-01T02:36:52;19.33;;;13.60;;
2211;SDS011;48849;48.758;9.158;2023-03-01T02:39:23;18.58;;;14.13;;
2211;SDS011;48849;48.758;9.158;2023-03-01T02:41:53;18.98;;;14.23;;
2211;SDS011;48849;48.758;9.158;2023-03-01T02:44:23;17.98;;;13.88;;
2211;SDS011;48849;48.758;9.158;2023-03-01T02:46:52;20.90;;;15.63;;
2211;SDS011;48849;48.758;9.158;2023-03-01T02:49:21;19.10;;;14.45;;
2211;SDS011;48849;48.758;9.158;2023-03-01T02:51:52;18.67;;;15.40;;
2211;SDS011;48849;48.758;9.158;2023-03-01T02:54:31;20.08;;;15.27;;
2211;SDS011;48849;48.758;9.158;2023-03-01T02:57:02;18.48;;;15.25;;
2211;SDS011;48849;48.758;9.158;2023-03-01T02:59:31;20.05;;;16.00;;
2211;SDS011;48849;48.758;9.158;2023-03-01T03:02:04;20.17;;;15.20;;
2211;SDS011;48849;48.758;9.158;2023-03-01T03:04:31;19.75;;;15.95;;
2211;SDS011;48849;48.758;9.158;2023-03-01T03:06:57;20.38;;;14.40;;
2211;SDS011;48849;48.758;9.158;2023-03-01T03:09:24;20.92;;;16.02;;
2211;SDS011;48849;48.758;9.158;2023-03-01T03:11:51;20.10;;;14.77;;
2211;SDS011;48849;48.758;9.158;2023-03-01T03:14:18;19.60;;;15.02;;
2211;SDS011;48849;48.758;9.158;2023-03-01T03:16:47;22.98;;;17.48;;
2211;SDS011;48849;48.758;9.158;2023-03-01T03:19:15;18.73;;;15.13;;
2211;SDS011;48849;48.758;9.158;2023-03-01T03:21:42;18.45;;;13.82;;
2211;SDS011;48849;48.758;9.158;2023-03-01T03:24:09;19.13;;;14.98;;
2211;SDS011;48849;48.758;9.158;2023-03-01T03:26:36;17.90;;;15.05;;
2211;SDS011;48849;48.758;9.158;2023-03-01T03:29:02;23.77;;;16.77;;
2211;SDS011;48849;48.758;9.158;2023-03-01T03:31:29;20.13;;;15.35;;
2211;SDS011;48849;48.758;9.158;2023-03-01T03:33:57;19.77;;;14.65;;
2211;SDS011;48849;48.758;9.158;2023-03-01T03:36:24;20.77;;;16.15;;
2211;SDS011;48849;48.758;9.158;2023-03-01T03:38:51;20.80;;;15.60;;
2211;SDS011;48849;48.758;9.158;2023-03-01T03:41:18;20.85;;;15.95;;
2211;SDS011;48849;48.758;9.158;2023-03-01T03:43:44;24.27;;;16.85;;
2211;SDS011;48849;48.758;9.158;2023-03-01T03:46:11;19.25;;;15.98;;
2211;SDS011;48849;48.758;9.158;2023-03-01T03:48:39;20.42;;;15.80;;
2211;SDS011;48849;48.758;9.158;2023-03-01T03:51:11;20.65;;;15.38;;
2211;SDS011;48849;48.758;9.158;2023-03-01T03:53:38;21.13;;;15.32;;
2211;SDS011;48849;48.758;9.158;2023-03-01T03:56:06;21.33;;;16.73;;
2211;SDS011;48849;48.758;9.158;2023-03-01T03:58:33;19.65;;;15.60;;
2211;SDS011;48849;48.758;9.158;2023-03-01T04:01:00;22.80;;;16.13;;
2211;SDS011;48849;48.758;9.158;2023-03-01T04:03:28;20.13;;;15.20;;
2211;SDS011;48849;48.758;9.158;2023-03-01T04:05:56;21.33;;;16.88;;
2211;SDS011;48849;48.758;9.158;2023-03-01T04:08:25;18.98;;;15.48;;
2211;SDS011;48849;48.758;9.158;2023-03-01T04:10:57;20.92;;;16.58;;
2211;SDS011;48849;48.758;9.158;2023-03-01T04:13:25;22.20;;;16.02;;
2211;SDS011;48849;48.758;9.158;2023-03-01T04:15:52;20.92;;;15.90;;
2211;SDS011;48849;48.758;9.158;2023-03-01T04:18:21;23.15;;;16.50;;
2211;SDS011;48849;48.758;9.158;2023-03-01T04:20:50;20.65;;;16.63;;
2211;SDS011;48849;48.758;9.158;2023-03-01T04:23:20;21.38;;;15.65;;
2211;SDS011;48849;48.758;9.158;2023-03-01T04:25:49;20.67;;;15.50;;
2211;SDS011;48849;48.758;9.158;2023-03-01T04:28:19;19.92;;;15.43;;
2211;SDS011;48849;48.758;9.158;2023-03-01T04:30:47;19.85;;;15.77;;
2211;SDS011;48849;48.758;9.158;2023-03-01T04:33:14;22.05;;;16.73;;
2211;SDS011;48849;48.758;9.158;2023-03-01T04:35:40;21.35;;;16.70;;
2211;SDS011;48849;48.758;9.158;2023-03-01T04:38:07;23.45;;;16.48;;
2211;SDS011;48849;48.758;9.158;2023-03-01T04:40:35;20.73;;;16.48;;
2211;SDS011;48849;48.758;9.158;2023-03-01T04:43:03;23.10;;;17.85;;
2211;SDS011;48849;48.758;9.158;2023-03-01T04:45:31;19.02;;;16.23;;
2211;SDS011;48849;48.758;9.158;2023-03-01T04:47:59;24.65;;;17.38;;
2211;SDS011;48849;48.758;9.158;2023-03-01T04:50:26;20.33;;;16.40;;
2211;SDS011;48849;48.758;9.158;2023-03-01T04:52:53;21.25;;;16.40;;
2211;SDS011;48849;48.758;9.158;2023-03-01T04:55:23;26.45;;;17.20;;
2211;SDS011;48849;48.758;9.158;2023-03-01T04:57:50;24.67;;;17.23;;
2211;SDS011;48849;48.758;9.158;2023-03-01T05:00:19;23.52;;;18.10;;
2211;SDS011;48849;48.758;9.158;2023-03-01T05:02:47;23.10;;;17.42;;
2211;SDS011;48849;48.758;9.158;2023-03-01T05:05:18;22.58;;;17.30;;
2211;SDS011;48849;48.758;9.158;2023-03-01T05:07:50;21.05;;;16.20;;
2211;SDS011;48849;48.758;9.158;2023-03-01T05:10:18;22.10;;;16.10;;
2211;SDS011;48849;48.758;9.158;2023-03-01T05:12:46;20.33;;;17.02;;
2211;SDS011;48849;48.758;9.158;2023-03-01T05:15:13;23.40;;;17.13;;
2211;SDS011;48849;48.758;9.158;2023-03-01T05:17:41;22.20;;;16.83;;
2211;SDS011;48849;48.758;9.158;2023-03-01T05:20:09;23.02;;;17.83;;
2211;SDS011;48849;48.758;9.158;2023-03-01T05:22:36;22.38;;;17.60;;
2211;SDS011;48849;48.758;9.158;2023-03-01T05:25:03;21.50;;;16.63;;
2211;SDS011;48849;48.758;9.158;2023-03-01T05:27:30;21.05;;;15.98;;
2211;SDS011;48849;48.758;9.158;2023-03-01T05:29:57;22.95;;;16.42;;
2211;SDS011;48849;48.758;9.158;2023-03-01T05:32:24;22.65;;;17.10;;
2211;SDS011;48849;48.758;9.158;2023-03-01T05:34:52;22.80;;;17.92;;
2211;SDS011;48849;48.758;9.158;2023-03-01T05:37:20;22.42;;;17.05;;
2211;SDS011;48849;48.758;9.158;2023-03-01T05:39:46;23.70;;;17.60;;
2211;SDS011;48849;48.758;9.158;2023-03-01T05:42:15;23.05;;;16.83;;
2211;SDS011;48849;48.758;9.158;2023-03-01T05:44:42;20.98;;;17.05;;
2211;SDS011;48849;48.758;9.158;2023-03-01T05:47:09;24.45;;;16.17;;
2211;SDS011;48849;48.758;9.158;2023-03-01T05:49:36;24.45;;;16.92;;
2211;SDS011;48849;48.758;9.158;2023-03-01T05:52:04;21.63;;;16.80;;
2211;SDS011;48849;48.758;9.158;2023-03-01T05:54:30;24.20;;;16.48;;
2211;SDS011;48849;48.758;9.158;2023-03-01T05:56:58;21.73;;;16.60;;
2211;SDS011;48849;48.758;9.158;2023-03-01T05:59:24;20.42;;;16.83;;
2211;SDS011;48849;48.758;9.158;2023-03-01T06:01:51;21.27;;;16.42;;
2211;SDS011;48849;48.758;9.158;2023-03-01T06:04:18;26.80;;;17.30;;
2211;SDS011;48849;48.758;9.158;2023-03-01T06:06:46;21.30;;;16.88;;
2211;SDS011;48849;48.758;9.158;2023-03-01T06:09:14;21.10;;;16.35;;
2211;SDS011;48849;48.758;9.158;2023-03-01T06:11:40;23.58;;;17.85;;
2211;SDS011;48849;48.758;9.158;2023-03-01T06:14:07;24.05;;;17.13;;
2211;SDS011;48849;48.758;9.158;2023-03-01T06:16:35;24.70;;;18.05;;
2211;SDS011;48849;48.758;9.158;2023-03-01T06:19:02;22.27;;;18.02;;
2211;SDS011;48849;48.758;9.158;2023-03-01T06:21:28;22.77;;;17.73;;
2211;SDS011;48849;48.758;9.158;2023-03-01T06:23:55;23.48;;;17.25;;
2211;SDS011;48849;48.758;9.158;2023-03-01T06:26:23;24.33;;;17.75;;
2211;SDS011;48849;48.758;9.158;2023-03-01T06:28:50;25.17;;;18.80;;
2211;SDS011;48849;48.758;9.158;2023-03-01T06:31:16;22.73;;;17.85;;
2211;SDS011;48849;48.758;9.158;2023-03-01T06:33:43;24.88;;;17.60;;
2211;SDS011;48849;48.758;9.158;2023-03-01T06:36:10;27.65;;;18.95;;
2211;SDS011;48849;48.758;9.158;2023-03-01T06:38:37;25.50;;;17.60;;
2211;SDS011;48849;48.758;9.158;2023-03-01T06:41:05;22.52;;;17.05;;
2211;SDS011;48849;48.758;9.158;2023-03-01T06:43:34;22.83;;;18.17;;
2211;SDS011;48849;48.758;9.158;2023-03-01T06:46:03;19.20;;;16.42;;
2211;SDS011;48849;48.758;9.158;2023-03-01T06:48:31;23.00;;;18.42;;
2211;SDS011;48849;48.758;9.158;2023-03-01T06:50:58;24.45;;;18.60;;
2211;SDS011;48849;48.758;9.158;2023-03-01T06:53:25;20.80;;;16.98;;
2211;SDS011;48849;48.758;9.158;2023-03-01T06:55:53;23.30;;;18.30;;
2211;SDS011;48849;48.758;9.158;2023-03-01T06:58:20;23.98;;;16.65;;
2211;SDS011;48849;48.758;9.158;2023-03-01T07:00:48;22.77;;;17.42;;
2211;SDS011;48849;48.758;9.158;2023-03-01T07:03:15;22.92;;;17.90;;
2211;SDS011;48849;48.758;9.158;2023-03-01T07:05:42;26.02;;;18.05;;
2211;SDS011;48849;48.758;9.158;2023-03-01T07:08:09;24.23;;;18.40;;
2211;SDS011;48849;48.758;9.158;2023-03-01T07:10:36;23.35;;;17.63;;
2211;SDS011;48849;48.758;9.158;2023-03-01T07:13:02;25.40;;;19.05;;
2211;SDS011;48849;48.758;9.158;2023-03-01T07:15:31;27.88;;;18.33;;
2211;SDS011;48849;48.758;9.158;2023-03-01T07:18:00;25.98;;;18.23;;
2211;SDS011;48849;48.758;9.158;2023-03-01T07:20:27;22.95;;;17.70;;
2211;SDS011;48849;48.758;9.158;2023-03-01T07:22:54;24.55;;;18.85;;
2211;SDS011;48849;48.758;9.158;2023-03-01T07:25:23;24.58;;;18.27;;
2211;SDS011;48849;48.758;9.158;2023-03-01T07:27:50;23.55;;;17.90;;
2211;SDS011;48849;48.758;9.158;2023-03-01T07:30:17;27.20;;;18.55;;
2211;SDS011;48849;48.758;9.158;2023-03-01T07:32:44;24.63;;;19.20;;
2211;SDS011;48849;48.758;9.158;2023-03-01T07:35:12;26.52;;;19.70;;
2211;SDS011;48849;48.758;9.158;2023-03-01T07:37:40;25.77;;;18.95;;
2211;SDS011;48849;48.758;9.158;2023-03-01T07:40:07;29.35;;;18.00;;
2211;SDS011;48849;48.758;9.158;2023-03-01T07:42:35;24.95;;;18.10;;
2211;SDS011;48849;48.758;9.158;2023-03-01T07:45:01;24.38;;;20.08;;
2211;SDS011;48849;48.758;9.158;2023-03-01T07:47:29;29.20;;;20.85;;
2211;SDS011;48849;48.758;9.158;2023-03-01T07:49:55;24.73;;;18.65;;
2211;SDS011;48849;48.758;9.158;2023-03-01T07:52:24;25.77;;;20.75;;
2211;SDS011;48849;48.758;9.158;2023-03-01T07:54:50;24.08;;;20.15;;
2211;SDS011;48849;48.758;9.158;2023-03-01T07:57:17;25.15;;;19.40;;
2211;SDS011;48849;48.758;9.158;2023-03-01T07:59:44;25.75;;;19.23;;
2211;SDS011;48849;48.758;9.158;2023-03-01T08:02:11;28.67;;;18.27;;
2211;SDS011;48849;48.758;9.158;2023-03-01T08:04:37;25.95;;;19.33;;
2211;SDS011;48849;48.758;9.158;2023-03-01T08:07:04;23.17;;;18.23;;
2211;SDS011;48849;48.758;9.158;2023-03-01T08:09:33;25.35;;;18.02;;
2211;SDS011;48849;48.758;9.158;2023-03-01T08:12:00;24.27;;;17.98;;
2211;SDS011;48849;48.758;9.158;2023-03-01T08:14:28;25.25;;;20.08;;
2211;SDS011;48849;48.758;9.158;2023-03-01T08:16:54;26.10;;;19.58;;
2211;SDS011;48849;48.758;9.158;2023-03-01T08:19:21;27.10;;;19.98;;
2211;SDS011;48849;48.758;9.158;2023-03-01T08:21:48;27.30;;;19.20;;
2211;SDS011;48849;48.758;9.158;2023-03-01T08:24:15;26.23;;;19.85;;
2211;SDS011;48849;48.758;9.158;2023-03-01T08:26:43;24.65;;;19.20;;
2211;SDS011;48849;48.758;9.158;2023-03-01T08:29:10;28.67;;;20.38;;
2211;SDS011;48849;48.758;9.158;2023-03-01T08:31:37;24.60;;;19.33;;
2211;SDS011;48849;48.758;9.158;2023-03-01T08:34:06;24.50;;;19.30;;
2211;SDS011;48849;48.758;9.158;2023-03-01T08:36:35;26.42;;;18.85;;
2211;SDS011;48849;48.758;9.158;2023-03-01T08:39:04;23.88;;;18.55;;
2211;SDS011;48849;48.758;9.158;2023-03-01T08:41:31;25.67;;;19.50;;
2211;SDS011;48849;48.758;9.158;2023-03-01T08:44:00;27.35;;;20.10;;
2211;SDS011;48849;48.758;9.158;2023-03-01T08:46:26;27.88;;;19.17;;
2211;SDS011;48849;48.758;9.158;2023-03-01T08:48:54;25.85;;;18.42;;
2211;SDS011;48849;48.758;9.158;2023-03-01T08:51:22;26.13;;;17.90;;
2211;SDS011;48849;48.758;9.158;2023-03-01T08:53:49;26.20;;;18.70;;
2211;SDS011;48849;48.758;9.158;2023-03-01T08:56:16;25.95;;;19.40;;
2211;SDS011;48849;48.758;9.158;2023-03-01T08:58:44;25.85;;;19.73;;
2211;SDS011;48849;48.758;9.158;2023-03-01T09:01:13;27.17;;;20.35;;
2211;SDS011;48849;48.758;9.158;2023-03-01T09:03:41;25.42;;;19.52;;
2211;SDS011;48849;48.758;9.158;2023-03-01T09:06:09;24.95;;;19.40;;
2211;SDS011;48849;48.758;9.158;2023-03-01T09:08:37;28.73;;;20.25;;
2211;SDS011;48849;48.758;9.158;2023-03-01T09:11:05;29.55;;;20.35;;
2211;SDS011;48849;48.758;9.158;2023-03-01T09:13:33;29.52;;;21.20;;
2211;SDS011;48849;48.758;9.158;2023-03-01T09:16:00;25.00;;;19.00;;
2211;SDS011;48849;48.758;9.158;2023-03-01T09:18:30;29.98;;;19.92;;
2211;SDS011;48849;48.758;9.158;2023-03-01T09:21:00;24.88;;;19.17;;
2211;SDS011;48849;48.758;9.158;2023-03-01T09:23:32;28.40;;;20.63;;
2211;SDS011;48849;48.758;9.158;2023-03-01T09:25:59;23.65;;;19.67;;
2211;SDS011;48849;48.758;9.158;2023-03-01T09:28:25;27.73;;;19.30;;
2211;SDS011;48849;48.758;9.158;2023-03-01T09:30:52;28.27;;;19.85;;
2211;SDS011;48849;48.758;9.158;2023-03-01T09:33:19;27.63;;;18.83;;
2211;SDS011;48849;48.758;9.158;2023-03-01T09:35:55;27.20;;;19.88;;
2211;SDS011;48849;48.758;9.158;2023-03-01T09:38:22;25.73;;;19.00;;
2211;SDS011;48849;48.758;9.158;2023-03-01T09:40:49;30.98;;;20.20;;
2211;SDS011;48849;48.758;9.158;2023-03-01T09:43:18;27.75;;;20.58;;
2211;SDS011;48849;48.758;9.158;2023-03-01T09:45:52;23.92;;;18.80;;
2211;SDS011;48849;48.758;9.158;2023-03-01T09:48:23;25.08;;;19.77;;
2211;SDS011;48849;48.758;9.158;2023-03-01T09:50:54;28.83;;;20.30;;
2211;SDS011;48849;48.758;9.158;2023-03-01T09:53:21;28.15;;;19.17;;
2211;SDS011;48849;48.758;9.158;2023-03-01T09:56:04;26.42;;;20.40;;
2211;SDS011;48849;48.758;9.158;2023-03-01T09:58:40;28.20;;;20.27;;
2211;SDS011;48849;48.758;9.158;2023-03-01T10:04:10;30.50;;;18.90;;
2211;SDS011;48849;48.758;9.158;2023-03-01T10:06:58;24.10;;;19.10;;
2211;SDS011;48849;48.758;9.158;2023-03-01T10:09:36;26.25;;;19.38;;
2211;SDS011;48849;48.758;9.158;2023-03-01T10:12:08;26.30;;;19.20;;
2211;SDS011;48849;48.758;9.158;2023-03-01T10:14:38;26.92;;;19.83;;
2211;SDS011;48849;48.758;9.158;2023-03-01T10:17:12;22.77;;;19.30;;
2211;SDS011;48849;48.758;9.158;2023-03-01T10:19:50;25.05;;;20.05;;
2211;SDS011;48849;48.758;9.158;2023-03-01T10:22:20;24.65;;;19.55;;
2211;SDS011;48849;48.758;9.158;2023-03-01T10:24:48;22.58;;;19.25;;
2211;SDS011;48849;48.758;9.158;2023-03-01T10:27:17;24.27;;;19.67;;
2211;SDS011;48849;48.758;9.158;2023-03-01T10:29:49;26.08;;;18.98;;
2211;SDS011;48849;48.758;9.158;2023-03-01T10:32:22;25.08;;;19.65;;
2211;SDS011;48849;48.758;9.158;2023-03-01T10:34:49;25.08;;;19.45;;
2211;SDS011;48849;48.758;9.158;2023-03-01T10:37:17;27.35;;;19.58;;
2211;SDS011;48849;48.758;9.158;2023-03-01T10:39:56;25.13;;;18.48;;
2211;SDS011;48849;48.758;9.158;2023-03-01T10:42:26;24.08;;;18.20;;
2211;SDS011;48849;48.758;9.158;2023-03-01T10:44:55;24.33;;;18.02;;
2211;SDS011;48849;48.758;9.158;2023-03-01T10:47:23;26.65;;;19.35;;
2211;SDS011;48849;48.758;9.158;2023-03-01T10:50:00;22.88;;;18.98;;
2211;SDS011;48849;48.758;9.158;2023-03-01T10:52:32;28.33;;;19.05;;
2211;SDS011;48849;48.758;9.158;2023-03-01T10:55:01;21.67;;;18.95;;
2211;SDS011;48849;48.758;9.158;2023-03-01T10:57:34;21.95;;;17.23;;
2211;SDS011;48849;48.758;9.158;2023-03-01T11:00:20;23.67;;;17.25;;
2211;SDS011;48849;48.758;9.158;2023-03-01T11:03:01;20.90;;;16.85;;
2211;SDS011;48849;48.758;9.158;2023-03-01T11:05:29;24.60;;;18.83;;
2211;SDS011;48849;48.758;9.158;2023-03-01T11:08:01;23.48;;;17.67;;
2211;SDS011;48849;48.758;9.158;2023-03-01T11:10:29;23.63;;;18.10;;
2211;SDS011;48849;48.758;9.158;2023-03-01T11:13:07;22.00;;;18.25;;
2211;SDS011;48849;48.758;9.158;2023-03-01T11:15:40;22.25;;;17.35;;
2211;SDS011;48849;48.758;9.158;2023-03-01T11:18:17;24.35;;;19.60;;
2211;SDS011;48849;48.758;9.158;2023-03-01T11:20:46;23.10;;;18.08;;
2211;SDS011;48849;48.758;9.158;2023-03-01T11:23:14;21.70;;;17.05;;
2211;SDS011;48849;48.758;9.158;2023-03-01T11:25:43;23.85;;;18.25;;
2211;SDS011;48849;48.758;9.158;2023-03-01T11:28:14;22.33;;;18.65;;
2211;SDS011;48849;48.758;9.158;2023-03-01T11:30:44;21.33;;;18.02;;
2211;SDS011;48849;48.758;9.158;2023-03-01T11:33:20;21.05;;;16.67;;
2211;SDS011;48849;48.758;9.158;2023-03-01T11:36:00;25.02;;;17.58;;
2211;SDS011;48849;48.758;9.158;2023-03-01T11:38:34;20.67;;;16.30;;
2211;SDS011;48849;48.758;9.158;2023-03-01T11:41:04;20.23;;;16.23;;
2211;SDS011;48849;48.758;9.158;2023-03-01T11:43:35;23.55;;;17.95;;
2211;SDS011;48849;48.758;9.158;2023-03-01T11:49:12;22.33;;;17.65;;
2211;SDS011;48849;48.758;9.158;2023-03-01T11:51:57;21.55;;;16.92;;
2211;SDS011;48849;48.758;9.158;2023-03-01T11:54:35;21.77;;;17.00;;
2211;SDS011;48849;48.758;9.158;2023-03-01T11:57:18;22.20;;;16.90;;
2211;SDS011;48849;48.758;9.158;2023-03-01T11:59:58;23.20;;;17.63;;
2211;SDS011;48849;48.758;9.158;2023-03-01T12:05:52;25.58;;;18.30;;
2211;SDS011;48849;48.758;9.158;2023-03-01T12:08:49;27.77;;;18.23;;
2211;SDS011;48849;48.758;9.158;2023-03-01T12:11:32;21.58;;;17.52;;
2211;SDS011;48849;48.758;9.158;2023-03-01T12:14:23;21.13;;;18.58;;
2211;SDS011;48849;48.758;9.158;2023-03-01T12:17:10;23.13;;;16.98;;
2211;SDS011;48849;48.758;9.158;2023-03-01T12:19:56;22.65;;;19.13;;
2211;SDS011;48849;48.758;9.158;2023-03-01T12:22:44;26.27;;;19.75;;
2211;SDS011;48849;48.758;9.158;2023-03-01T12:25:28;23.00;;;18.13;;
2211;SDS011;48849;48.758;9.158;2023-03-01T12:28:04;23.23;;;19.02;;
2211;SDS011;48849;48.758;9.158;2023-03-01T12:30:48;22.00;;;17.88;;
2211;SDS011;48849;48.758;9.158;2023-03-01T12:33:26;19.40;;;17.00;;
2211;SDS011;48849;48.758;9.158;2023-03-01T12:36:12;21.65;;;18.27;;
2211;SDS011;48849;48.758;9.158;2023-03-01T12:38:53;21.92;;;18.25;;
2211;SDS011;48849;48.758;9.158;2023-03-01T12:41:35;22.17;;;16.60;;
2211;SDS011;48849;48.758;9.158;2023-03-01T12:44:15;22.80;;;17.23;;
2211;SDS011;48849;48.758;9.158;2023-03-01T12:47:07;20.80;;;16.55;;
2211;SDS011;48849;48.758;9.158;2023-03-01T12:49:43;21.20;;;16.85;;
2211;SDS011;48849;48.758;9.158;2023-03-01T12:52:14;19.30;;;15.95;;
2211;SDS011;48849;48.758;9.158;2023-03-01T12:54:48;20.25;;;17.38;;
2211;SDS011;48849;48.758;9.158;2023-03-01T12:57:18;21.15;;;16.30;;
2211;SDS011;48849;48.758;9.158;2023-03-01T13:00:01;20.35;;;16.33;;
2211;SDS011;48849;48.758;9.158;2023-03-01T13:02:35;19.88;;;16.33;;
2211;SDS011;48849;48.758;9.158;2023-03-01T13:05:13;21.20;;;15.10;;
2211;SDS011;48849;48.758;9.158;2023-03-01T13:07:51;18.58;;;15.73;;
2211;SDS011;48849;48.758;9.158;2023-03-01T13:10:24;18.75;;;14.68;;
2211;SDS011;48849;48.758;9.158;2023-03-01T13:13:01;18.75;;;16.02;;
2211;SDS011;48849;48.758;9.158;2023-03-01T13:15:38;22.92;;;15.38;;
2211;SDS011;48849;48.758;9.158;2023-03-01T13:20:55;18.48;;;15.52;;
2211;SDS011;48849;48.758;9.158;2023-03-01T13:23:24;17.92;;;15.10;;
2211;SDS011;48849;48.758;9.158;2023-03-01T13:28:48;19.33;;;15.02;;
2211;SDS011;48849;48.758;9.158;2023-03-01T13:34:40;22.10;;;16.25;;
2211;SDS011;48849;48.758;9.158;2023-03-01T13:37:09;17.63;;;14.60;;
2211;SDS011;48849;48.758;9.158;2023-03-01T13:39:44;19.27;;;14.95;;
2211;SDS011;48849;48.758;9.158;2023-03-01T13:42:28;18.02;;;14.27;;
2211;SDS011;48849;48.758;9.158;2023-03-01T13:45:03;18.80;;;14.68;;
2211;SDS011;48849;48.758;9.158;2023-03-01T13:47:40;17.35;;;15.00;;
2211;SDS011;48849;48.758;9.158;2023-03-01T13:50:16;17.00;;;13.43;;
2211;SDS011;48849;48.758;9.158;2023-03-01T13:52:48;19.80;;;15.95;;
2211;SDS011;48849;48.758;9.158;2023-03-01T13:55:17;22.17;;;15.13;;
2211;SDS011;48849;48.758;9.158;2023-03-01T13:57:48;18.60;;;16.15;;
2211;SDS011;48849;48.758;9.158;2023-03-01T14:00:25;18.00;;;15.65;;
2211;SDS011;48849;48.758;9.158;2023-03-01T14:03:00;21.25;;;16.52;;
2211;SDS011;48849;48.758;9.158;2023-03-01T14:05:36;21.10;;;15.85;;
2211;SDS011;48849;48.758;9.158;2023-03-01T14:08:04;23.23;;;17.50;;
2211;SDS011;48849;48.758;9.158;2023-03-01T14:10:36;19.83;;;16.55;;
2211;SDS011;48849;48.758;9.158;2023-03-01T14:13:17;34.60;;;23.98;;
2211;SDS011;48849;48.758;9.158;2023-03-01T14:15:56;36.00;;;27.60;;
2211;SDS011;48849;48.758;9.158;2023-03-01T14:18:35;23.35;;;19.25;;
2211;SDS011;48849;48.758;9.158;2023-03-01T14:21:12;23.63;;;18.10;;
2211;SDS011;48849;48.758;9.158;2023-03-01T14:23:40;39.50;;;28.05;;
2211;SDS011;48849;48.758;9.158;2023-03-01T14:26:08;29.63;;;22.63;;
2211;SDS011;48849;48.758;9.158;2023-03-01T14:28:37;25.58;;;20.00;;
2211;SDS011;48849;48.758;9.158;2023-03-01T14:33:58;33.83;;;23.85;;
2211;SDS011;48849;48.758;9.158;2023-03-01T14:36:27;32.92;;;21.88;;
2211;SDS011;48849;48.758;9.158;2023-03-01T14:38:55;26.85;;;19.13;;
2211;SDS011;48849;48.758;9.158;2023-03-01T14:41:29;35.33;;;25.52;;
2211;SDS011;48849;48.758;9.158;2023-03-01T14:43:59;37.38;;;26.58;;
2211;SDS011;48849;48.758;9.158;2023-03-01T14:46:29;35.00;;;24.98;;
2211;SDS011;48849;48.758;9.158;2023-03-01T14:49:01;27.45;;;21.73;;
2211;SDS011;48849;48.758;9.158;2023-03-01T14:51:31;33.72;;;24.73;;
2211;SDS011;48849;48.758;9.158;2023-03-01T14:54:02;24.83;;;19.73;;
2211;SDS011;48849;48.758;9.158;2023-03-01T14:56:29;33.08;;;23.13;;
2211;SDS011;48849;48.758;9.158;2023-03-01T14:59:10;28.88;;;21.80;;
2211;SDS011;48849;48.758;9.158;2023-03-01T15:01:37;30.00;;;22.88;;
2211;SDS011;48849;48.758;9.158;2023-03-01T15:04:05;33.08;;;23.50;;
2211;SDS011;48849;48.758;9.158;2023-03-01T15:06:33;32.42;;;24.35;;
2211;SDS011;48849;48.758;9.158;2023-03-01T15:09:00;38.90;;;26.42;;
2211;SDS011;48849;48.758;9.158;2023-03-01T15:11:28;25.73;;;19.45;;